sensor_id;sensor_type;location;lat;lon;timestamp;pressure;altitude;pressure_sealevel;temperature;humidity
7940;BME280;4015;48.888;9.226;2023-01-28T00:01:39;155813.22;;;2.23;78.32
7940;BME280;4015;48.888;9.226;2023-01-28T00:04:05;155824.66;;;2.27;78.24
7940;BME280;4015;48.888;9.226;2023-01-28T00:06:30;155822.06;;;2.26;77.46
7940;BME280;4015;48.888;9.226;2023-01-28T00:08:55;155837.31;;;2.32;78.22
7940;BME280;4015;48.888;9.226;2023-01-28T00:11:21;155841.16;;;2.34;78.07
7940;BME280;4015;48.888;9.226;2023-01-28T00:13:51;155846.22;;;2.36;78.44
7940;BME280;4015;48.888;9.226;2023-01-28T00:16:17;155850.03;;;2.37;78.22
7940;BME280;4015;48.888;9.226;2023-01-28T00:18:42;155869.06;;;2.45;78.15
7940;BME280;4015;48.888;9.226;2023-01-28T00:21:13;155903.41;;;2.59;78.09
7940;BME280;4015;48.888;9.226;2023-01-28T00:23:39;155897.03;;;2.56;77.89
7940;BME280;4015;48.888;9.226;2023-01-28T00:26:10;155914.81;;;2.63;77.95
7940;BME280;4015;48.888;9.226;2023-01-28T00:28:36;155923.72;;;2.67;77.66
7940;BME280;4015;48.888;9.226;2023-01-28T00:31:14;155942.75;;;2.75;77.33
7940;BME280;4015;48.888;9.226;2023-01-28T00:33:41;155952.94;;;2.79;77.08
7940;BME280;4015;48.888;9.226;2023-01-28T00:36:07;155946.56;;;2.76;76.84
7940;BME280;4015;48.888;9.226;2023-01-28T00:38:33;155935.16;;;2.72;77.57
7940;BME280;4015;48.888;9.226;2023-01-28T00:41:12;155942.75;;;2.75;76.99
7940;BME280;4015;48.888;9.226;2023-01-28T00:43:38;155949.16;;;2.77;77.72
7940;BME280;4015;48.888;9.226;2023-01-28T00:46:04;155952.94;;;2.79;76.73
7940;BME280;4015;48.888;9.226;2023-01-28T00:48:32;155923.72;;;2.67;77.50
7940;BME280;4015;48.888;9.226;2023-01-28T00:50:57;155923.72;;;2.67;77.38
7940;BME280;4015;48.888;9.226;2023-01-28T00:53:22;155862.72;;;2.42;78.15
7940;BME280;4015;48.888;9.226;2023-01-28T00:55:48;155885.63;;;2.52;77.65
7940;BME280;4015;48.888;9.226;2023-01-28T00:58:13;155885.63;;;2.52;78.38
7940;BME280;4015;48.888;9.226;2023-01-28T01:00:38;155891.97;;;2.54;77.77
7940;BME280;4015;48.888;9.226;2023-01-28T01:03:04;155928.78;;;2.69;77.30
7940;BME280;4015;48.888;9.226;2023-01-28T01:05:29;155900.88;;;2.58;77.86
7940;BME280;4015;48.888;9.226;2023-01-28T01:07:54;155888.16;;;2.53;78.16
7940;BME280;4015;48.888;9.226;2023-01-28T01:10:20;155890.69;;;2.54;78.90
7940;BME280;4015;48.888;9.226;2023-01-28T01:12:46;155894.50;;;2.55;78.00
7940;BME280;4015;48.888;9.226;2023-01-28T01:15:12;155898.28;;;2.57;78.48
7940;BME280;4015;48.888;9.226;2023-01-28T01:17:40;155891.97;;;2.54;78.20
7940;BME280;4015;48.888;9.226;2023-01-28T01:20:10;155923.72;;;2.67;78.61
7940;BME280;4015;48.888;9.226;2023-01-28T01:22:36;155932.63;;;2.70;78.46
7940;BME280;4015;48.888;9.226;2023-01-28T01:25:03;155911.00;;;2.62;78.13
7940;BME280;4015;48.888;9.226;2023-01-28T01:27:29;155893.22;;;2.55;78.66
7940;BME280;4015;48.888;9.226;2023-01-28T01:29:55;155889.44;;;2.53;78.40
7940;BME280;4015;48.888;9.226;2023-01-28T01:32:21;155881.78;;;2.50;78.93
7940;BME280;4015;48.888;9.226;2023-01-28T01:34:46;155879.25;;;2.49;78.97
7940;BME280;4015;48.888;9.226;2023-01-28T01:37:12;155893.22;;;2.55;78.61
7940;BME280;4015;48.888;9.226;2023-01-28T01:39:37;155886.91;;;2.52;78.12
7940;BME280;4015;48.888;9.226;2023-01-28T01:42:02;155891.97;;;2.54;78.73
7940;BME280;4015;48.888;9.226;2023-01-28T01:47:35;155862.72;;;2.42;78.28
7940;BME280;4015;48.888;9.226;2023-01-28T01:50:11;155894.50;;;2.55;78.96
7940;BME280;4015;48.888;9.226;2023-01-28T01:52:41;155913.53;;;2.63;78.66
7940;BME280;4015;48.888;9.226;2023-01-28T01:55:12;155916.06;;;2.64;78.16
7940;BME280;4015;48.888;9.226;2023-01-28T01:57:38;155898.28;;;2.57;78.70
7940;BME280;4015;48.888;9.226;2023-01-28T02:00:05;155879.25;;;2.49;78.76
7940;BME280;4015;48.888;9.226;2023-01-28T02:02:45;155885.63;;;2.52;78.74
7940;BME280;4015;48.888;9.226;2023-01-28T02:05:13;155841.16;;;2.34;79.11
7940;BME280;4015;48.888;9.226;2023-01-28T02:07:40;155860.19;;;2.41;78.94
7940;BME280;4015;48.888;9.226;2023-01-28T02:10:06;155861.47;;;2.42;79.45
7940;BME280;4015;48.888;9.226;2023-01-28T02:12:48;155893.22;;;2.55;79.24
7940;BME280;4015;48.888;9.226;2023-01-28T02:15:22;155889.44;;;2.53;78.91
7940;BME280;4015;48.888;9.226;2023-01-28T02:17:49;155866.53;;;2.44;79.49
7940;BME280;4015;48.888;9.226;2023-01-28T02:20:22;155919.91;;;2.65;78.64
7940;BME280;4015;48.888;9.226;2023-01-28T02:29:07;155909.72;;;2.61;79.09
7940;BME280;4015;48.888;9.226;2023-01-28T02:31:49;155866.53;;;2.44;79.64
7940;BME280;4015;48.888;9.226;2023-01-28T02:37:20;155895.75;;;2.56;79.82
7940;BME280;4015;48.888;9.226;2023-01-28T02:40:09;155904.66;;;2.59;79.01
7940;BME280;4015;48.888;9.226;2023-01-28T02:42:37;155895.75;;;2.56;79.48
7940;BME280;4015;48.888;9.226;2023-01-28T02:45:15;155923.72;;;2.67;78.93
7940;BME280;4015;48.888;9.226;2023-01-28T02:47:42;155926.25;;;2.68;79.41
7940;BME280;4015;48.888;9.226;2023-01-28T02:50:26;155916.06;;;2.64;78.58
7940;BME280;4015;48.888;9.226;2023-01-28T02:58:53;155895.75;;;2.56;79.08
7940;BME280;4015;48.888;9.226;2023-01-28T03:01:38;155914.81;;;2.63;79.45
7940;BME280;4015;48.888;9.226;2023-01-28T03:04:08;155924.97;;;2.67;79.80
7940;BME280;4015;48.888;9.226;2023-01-28T03:06:45;155942.75;;;2.75;79.85
7940;BME280;4015;48.888;9.226;2023-01-28T03:09:13;155924.97;;;2.67;79.66
7940;BME280;4015;48.888;9.226;2023-01-28T03:12:31;155924.97;;;2.67;79.62
7940;BME280;4015;48.888;9.226;2023-01-28T03:15:12;155922.44;;;2.66;80.00
7940;BME280;4015;48.888;9.226;2023-01-28T03:18:02;155907.19;;;2.60;79.72
7940;BME280;4015;48.888;9.226;2023-01-28T03:20:55;155902.13;;;2.58;79.71
7940;BME280;4015;48.888;9.226;2023-01-28T03:23:59;155853.88;;;2.39;80.76
7940;BME280;4015;48.888;9.226;2023-01-28T03:27:07;155914.81;;;2.63;79.49
7940;BME280;4015;48.888;9.226;2023-01-28T03:29:56;155907.19;;;2.60;79.86
7940;BME280;4015;48.888;9.226;2023-01-28T03:32:43;155871.66;;;2.46;80.27
7940;BME280;4015;48.888;9.226;2023-01-28T03:35:30;155869.06;;;2.45;80.81
7940;BME280;4015;48.888;9.226;2023-01-28T03:38:16;155898.28;;;2.57;80.54
7940;BME280;4015;48.888;9.226;2023-01-28T03:43:14;155922.44;;;2.66;80.76
7940;BME280;4015;48.888;9.226;2023-01-28T03:45:39;155908.47;;;2.61;80.56
7940;BME280;4015;48.888;9.226;2023-01-28T03:48:04;155877.97;;;2.49;80.68
7940;BME280;4015;48.888;9.226;2023-01-28T03:50:30;155888.16;;;2.53;81.04
7940;BME280;4015;48.888;9.226;2023-01-28T03:52:56;155888.16;;;2.53;81.27
7940;BME280;4015;48.888;9.226;2023-01-28T03:55:35;155852.56;;;2.38;81.13
7940;BME280;4015;48.888;9.226;2023-01-28T03:58:01;155871.66;;;2.46;81.32
7940;BME280;4015;48.888;9.226;2023-01-28T04:00:26;155856.41;;;2.40;81.47
7940;BME280;4015;48.888;9.226;2023-01-28T04:02:51;155853.88;;;2.39;81.62
7940;BME280;4015;48.888;9.226;2023-01-28T04:05:17;155836.03;;;2.32;81.95
7940;BME280;4015;48.888;9.226;2023-01-28T04:07:44;155876.72;;;2.48;81.56
7940;BME280;4015;48.888;9.226;2023-01-28T04:10:09;155870.38;;;2.46;80.89
7940;BME280;4015;48.888;9.226;2023-01-28T04:12:35;155881.78;;;2.50;80.67
7940;BME280;4015;48.888;9.226;2023-01-28T04:15:02;155871.66;;;2.46;81.86
7940;BME280;4015;48.888;9.226;2023-01-28T04:17:39;155890.69;;;2.54;81.62
7940;BME280;4015;48.888;9.226;2023-01-28T04:20:05;155908.47;;;2.61;81.25
7940;BME280;4015;48.888;9.226;2023-01-28T04:22:30;155917.38;;;2.64;80.88
7940;BME280;4015;48.888;9.226;2023-01-28T04:24:55;155944.03;;;2.75;81.00
7940;BME280;4015;48.888;9.226;2023-01-28T04:27:21;155930.06;;;2.69;80.93
7940;BME280;4015;48.888;9.226;2023-01-28T04:29:46;155932.63;;;2.70;80.66
7940;BME280;4015;48.888;9.226;2023-01-28T04:32:11;155912.28;;;2.62;81.32
7940;BME280;4015;48.888;9.226;2023-01-28T04:34:36;155922.44;;;2.66;80.86
7940;BME280;4015;48.888;9.226;2023-01-28T04:37:02;155916.06;;;2.64;81.22
7940;BME280;4015;48.888;9.226;2023-01-28T04:39:27;155944.03;;;2.75;81.25
7940;BME280;4015;48.888;9.226;2023-01-28T04:41:52;155946.56;;;2.76;80.66
7940;BME280;4015;48.888;9.226;2023-01-28T04:44:18;155932.63;;;2.70;80.83
7940;BME280;4015;48.888;9.226;2023-01-28T04:46:43;155933.91;;;2.71;80.97
7940;BME280;4015;48.888;9.226;2023-01-28T04:49:08;155926.25;;;2.68;80.99
7940;BME280;4015;48.888;9.226;2023-01-28T04:51:33;155923.72;;;2.67;81.63
7940;BME280;4015;48.888;9.226;2023-01-28T04:53:59;155916.06;;;2.64;81.00
7940;BME280;4015;48.888;9.226;2023-01-28T04:56:24;155865.25;;;2.43;81.87
7940;BME280;4015;48.888;9.226;2023-01-28T04:58:49;155857.66;;;2.40;82.71
7940;BME280;4015;48.888;9.226;2023-01-28T05:01:15;155883.03;;;2.51;82.28
7940;BME280;4015;48.888;9.226;2023-01-28T05:03:40;155902.13;;;2.58;82.43
7940;BME280;4015;48.888;9.226;2023-01-28T05:06:05;155894.50;;;2.55;81.95
7940;BME280;4015;48.888;9.226;2023-01-28T05:08:31;155875.44;;;2.48;82.21
7940;BME280;4015;48.888;9.226;2023-01-28T05:10:56;155848.75;;;2.37;82.89
7940;BME280;4015;48.888;9.226;2023-01-28T05:13:21;155883.03;;;2.51;82.50
7940;BME280;4015;48.888;9.226;2023-01-28T05:15:51;155898.28;;;2.57;82.74
7940;BME280;4015;48.888;9.226;2023-01-28T05:18:17;155886.91;;;2.52;83.01
7940;BME280;4015;48.888;9.226;2023-01-28T05:20:42;155889.44;;;2.53;82.95
7940;BME280;4015;48.888;9.226;2023-01-28T05:23:07;155850.03;;;2.37;82.88
7940;BME280;4015;48.888;9.226;2023-01-28T05:25:33;155848.75;;;2.37;83.88
7940;BME280;4015;48.888;9.226;2023-01-28T05:27:58;155856.41;;;2.40;83.99
7940;BME280;4015;48.888;9.226;2023-01-28T05:30:23;155866.53;;;2.44;84.04
7940;BME280;4015;48.888;9.226;2023-01-28T05:32:49;155900.88;;;2.58;83.81
7940;BME280;4015;48.888;9.226;2023-01-28T05:35:18;155877.97;;;2.49;83.44
7940;BME280;4015;48.888;9.226;2023-01-28T05:37:43;155874.19;;;2.47;83.57
7940;BME280;4015;48.888;9.226;2023-01-28T05:40:09;155891.97;;;2.54;84.12
7940;BME280;4015;48.888;9.226;2023-01-28T05:42:35;155914.81;;;2.63;84.01
7940;BME280;4015;48.888;9.226;2023-01-28T05:45:00;155936.44;;;2.72;83.67
7940;BME280;4015;48.888;9.226;2023-01-28T05:47:25;155921.19;;;2.66;83.41
7940;BME280;4015;48.888;9.226;2023-01-28T05:49:51;155922.44;;;2.66;83.41
7940;BME280;4015;48.888;9.226;2023-01-28T05:52:16;155909.72;;;2.61;83.84
7940;BME280;4015;48.888;9.226;2023-01-28T05:54:41;155909.72;;;2.61;84.15
7940;BME280;4015;48.888;9.226;2023-01-28T05:57:07;155918.66;;;2.65;84.01
7940;BME280;4015;48.888;9.226;2023-01-28T05:59:32;155909.72;;;2.61;84.77
7940;BME280;4015;48.888;9.226;2023-01-28T06:01:57;155928.78;;;2.69;84.02
7940;BME280;4015;48.888;9.226;2023-01-28T06:04:22;155912.28;;;2.62;84.56
7940;BME280;4015;48.888;9.226;2023-01-28T06:06:48;155949.16;;;2.77;84.10
7940;BME280;4015;48.888;9.226;2023-01-28T06:09:13;155930.06;;;2.69;83.65
7940;BME280;4015;48.888;9.226;2023-01-28T06:11:38;155919.91;;;2.65;84.22
7940;BME280;4015;48.888;9.226;2023-01-28T06:14:04;155938.97;;;2.73;83.59
7940;BME280;4015;48.888;9.226;2023-01-28T06:16:29;155937.69;;;2.73;83.93
7940;BME280;4015;48.888;9.226;2023-01-28T06:18:54;155940.22;;;2.74;83.96
7940;BME280;4015;48.888;9.226;2023-01-28T06:21:20;155985.97;;;2.92;83.58
7940;BME280;4015;48.888;9.226;2023-01-28T06:23:45;156003.75;;;2.99;83.07
7940;BME280;4015;48.888;9.226;2023-01-28T06:26:10;155975.78;;;2.88;83.71
7940;BME280;4015;48.888;9.226;2023-01-28T06:28:36;155975.78;;;2.88;83.43
7940;BME280;4015;48.888;9.226;2023-01-28T06:31:01;155972.00;;;2.86;83.39
7940;BME280;4015;48.888;9.226;2023-01-28T06:33:26;155980.91;;;2.90;83.51
7940;BME280;4015;48.888;9.226;2023-01-28T06:35:53;155945.28;;;2.76;84.05
7940;BME280;4015;48.888;9.226;2023-01-28T06:38:18;155874.19;;;2.47;84.97
7940;BME280;4015;48.888;9.226;2023-01-28T06:40:43;155907.19;;;2.60;84.36
7940;BME280;4015;48.888;9.226;2023-01-28T06:43:10;155871.66;;;2.46;84.80
7940;BME280;4015;48.888;9.226;2023-01-28T06:45:35;155875.44;;;2.48;84.74
7940;BME280;4015;48.888;9.226;2023-01-28T06:48:00;155871.66;;;2.46;84.90
7940;BME280;4015;48.888;9.226;2023-01-28T06:50:26;155870.38;;;2.46;85.40
7940;BME280;4015;48.888;9.226;2023-01-28T06:52:51;155886.91;;;2.52;85.05
7940;BME280;4015;48.888;9.226;2023-01-28T06:55:16;155867.81;;;2.44;85.64
7940;BME280;4015;48.888;9.226;2023-01-28T06:57:42;155883.03;;;2.51;85.56
7940;BME280;4015;48.888;9.226;2023-01-28T07:00:10;155918.66;;;2.65;85.32
7940;BME280;4015;48.888;9.226;2023-01-28T07:02:37;155937.69;;;2.73;85.00
7940;BME280;4015;48.888;9.226;2023-01-28T07:05:03;155922.44;;;2.66;84.99
7940;BME280;4015;48.888;9.226;2023-01-28T07:07:29;155922.44;;;2.66;85.10
7940;BME280;4015;48.888;9.226;2023-01-28T07:09:54;155952.94;;;2.79;84.78
7940;BME280;4015;48.888;9.226;2023-01-28T07:12:19;155940.22;;;2.74;85.31
7940;BME280;4015;48.888;9.226;2023-01-28T07:14:45;155947.88;;;2.77;85.59
7940;BME280;4015;48.888;9.226;2023-01-28T07:17:10;155950.41;;;2.78;85.19
7940;BME280;4015;48.888;9.226;2023-01-28T07:19:35;155963.09;;;2.83;84.90
7940;BME280;4015;48.888;9.226;2023-01-28T07:22:01;155994.91;;;2.95;85.10
7940;BME280;4015;48.888;9.226;2023-01-28T07:24:27;155942.75;;;2.75;85.24
7940;BME280;4015;48.888;9.226;2023-01-28T07:26:53;155924.97;;;2.67;85.36
7940;BME280;4015;48.888;9.226;2023-01-28T07:29:18;155944.03;;;2.75;86.01
7940;BME280;4015;48.888;9.226;2023-01-28T07:31:43;155960.53;;;2.82;85.27
7940;BME280;4015;48.888;9.226;2023-01-28T07:34:09;155966.94;;;2.84;85.68
7940;BME280;4015;48.888;9.226;2023-01-28T07:36:34;155984.72;;;2.91;85.55
7940;BME280;4015;48.888;9.226;2023-01-28T07:38:59;155975.78;;;2.88;84.68
7940;BME280;4015;48.888;9.226;2023-01-28T07:41:25;155983.44;;;2.91;84.89
7940;BME280;4015;48.888;9.226;2023-01-28T07:43:50;155960.53;;;2.82;85.42
7940;BME280;4015;48.888;9.226;2023-01-28T07:46:15;155975.78;;;2.88;85.21
7940;BME280;4015;48.888;9.226;2023-01-28T07:48:40;155993.56;;;2.95;85.46
7940;BME280;4015;48.888;9.226;2023-01-28T07:51:06;156003.75;;;2.99;85.28
7940;BME280;4015;48.888;9.226;2023-01-28T07:53:31;156022.81;;;3.07;84.81
7940;BME280;4015;48.888;9.226;2023-01-28T07:56:00;156040.59;;;3.14;84.96
7940;BME280;4015;48.888;9.226;2023-01-28T07:58:26;156024.09;;;3.07;84.93
7940;BME280;4015;48.888;9.226;2023-01-28T08:00:55;156010.09;;;3.02;85.40
7940;BME280;4015;48.888;9.226;2023-01-28T08:03:21;155999.97;;;2.97;84.89
7940;BME280;4015;48.888;9.226;2023-01-28T08:05:49;156026.66;;;3.08;85.08
7940;BME280;4015;48.888;9.226;2023-01-28T08:08:15;156064.78;;;3.23;84.14
7940;BME280;4015;48.888;9.226;2023-01-28T08:10:40;156083.81;;;3.31;84.00
7940;BME280;4015;48.888;9.226;2023-01-28T08:13:06;156100.34;;;3.38;83.55
7940;BME280;4015;48.888;9.226;2023-01-28T08:15:33;156092.75;;;3.35;84.13
7940;BME280;4015;48.888;9.226;2023-01-28T08:17:59;156124.53;;;3.47;83.84
7940;BME280;4015;48.888;9.226;2023-01-28T08:20:26;156146.13;;;3.56;83.24
7940;BME280;4015;48.888;9.226;2023-01-28T08:22:52;156171.56;;;3.66;83.21
7940;BME280;4015;48.888;9.226;2023-01-28T08:25:17;156147.38;;;3.57;83.20
7940;BME280;4015;48.888;9.226;2023-01-28T08:27:42;156147.38;;;3.57;83.25
7940;BME280;4015;48.888;9.226;2023-01-28T08:30:08;156183.00;;;3.71;83.33
7940;BME280;4015;48.888;9.226;2023-01-28T08:32:34;156199.53;;;3.77;82.65
7940;BME280;4015;48.888;9.226;2023-01-28T08:35:00;156231.31;;;3.90;82.60
7940;BME280;4015;48.888;9.226;2023-01-28T08:37:25;156230.06;;;3.90;81.97
7940;BME280;4015;48.888;9.226;2023-01-28T08:39:51;156222.41;;;3.87;81.93
7940;BME280;4015;48.888;9.226;2023-01-28T08:42:17;156255.47;;;4.00;81.76
7940;BME280;4015;48.888;9.226;2023-01-28T08:44:42;156296.19;;;4.16;81.78
7940;BME280;4015;48.888;9.226;2023-01-28T08:47:07;156310.19;;;4.22;81.17
7940;BME280;4015;48.888;9.226;2023-01-28T08:49:33;156269.47;;;4.05;81.24
7940;BME280;4015;48.888;9.226;2023-01-28T08:51:58;156274.53;;;4.07;80.88
7940;BME280;4015;48.888;9.226;2023-01-28T08:54:23;156294.91;;;4.16;81.14
7940;BME280;4015;48.888;9.226;2023-01-28T08:56:49;156292.31;;;4.15;80.65
7940;BME280;4015;48.888;9.226;2023-01-28T08:59:16;156261.84;;;4.02;81.11
7940;BME280;4015;48.888;9.226;2023-01-28T09:01:41;156235.13;;;3.92;82.23
7940;BME280;4015;48.888;9.226;2023-01-28T09:04:06;156319.06;;;4.25;80.97
7940;BME280;4015;48.888;9.226;2023-01-28T09:06:32;156362.31;;;4.43;80.29
7940;BME280;4015;48.888;9.226;2023-01-28T09:08:58;156315.25;;;4.24;80.62
7940;BME280;4015;48.888;9.226;2023-01-28T09:11:24;156371.25;;;4.46;80.44
7940;BME280;4015;48.888;9.226;2023-01-28T09:13:50;156341.97;;;4.35;80.51
7940;BME280;4015;48.888;9.226;2023-01-28T09:16:15;156358.50;;;4.41;80.15
7940;BME280;4015;48.888;9.226;2023-01-28T09:18:40;156357.25;;;4.41;80.40
7940;BME280;4015;48.888;9.226;2023-01-28T09:21:06;156389.03;;;4.53;79.62
7940;BME280;4015;48.888;9.226;2023-01-28T09:23:36;156459.00;;;4.81;78.68
7940;BME280;4015;48.888;9.226;2023-01-28T09:26:03;156470.47;;;4.86;78.43
7940;BME280;4015;48.888;9.226;2023-01-28T09:28:29;156438.66;;;4.73;78.31
7940;BME280;4015;48.888;9.226;2023-01-28T09:31:01;156446.25;;;4.76;78.68
7940;BME280;4015;48.888;9.226;2023-01-28T09:33:26;156494.63;;;4.96;78.23
7940;BME280;4015;48.888;9.226;2023-01-28T09:35:51;156478.06;;;4.89;77.64
7940;BME280;4015;48.888;9.226;2023-01-28T09:38:16;156448.81;;;4.77;78.02
7940;BME280;4015;48.888;9.226;2023-01-28T09:40:42;156493.34;;;4.95;78.02
7940;BME280;4015;48.888;9.226;2023-01-28T09:45:56;156434.84;;;4.72;77.89
7940;BME280;4015;48.888;9.226;2023-01-28T09:48:27;156470.47;;;4.86;78.39
7940;BME280;4015;48.888;9.226;2023-01-28T09:50:57;156415.72;;;4.64;78.68
7940;BME280;4015;48.888;9.226;2023-01-28T09:53:32;156391.56;;;4.54;79.44
7940;BME280;4015;48.888;9.226;2023-01-28T09:56:01;156437.38;;;4.73;79.28
7940;BME280;4015;48.888;9.226;2023-01-28T09:58:27;156366.13;;;4.44;79.53
7940;BME280;4015;48.888;9.226;2023-01-28T10:10:07;156338.13;;;4.33;79.98
7940;BME280;4015;48.888;9.226;2023-01-28T10:15:45;156273.25;;;4.07;81.54
7940;BME280;4015;48.888;9.226;2023-01-28T10:18:12;156283.47;;;4.11;80.84
7940;BME280;4015;48.888;9.226;2023-01-28T10:20:42;156263.13;;;4.03;81.59
7940;BME280;4015;48.888;9.226;2023-01-28T10:23:23;156293.66;;;4.15;81.83
7940;BME280;4015;48.888;9.226;2023-01-28T10:25:52;156287.25;;;4.13;81.13
7940;BME280;4015;48.888;9.226;2023-01-28T10:28:22;156226.22;;;3.88;82.46
7940;BME280;4015;48.888;9.226;2023-01-28T10:30:48;156230.06;;;3.90;81.93
7940;BME280;4015;48.888;9.226;2023-01-28T10:33:17;156308.91;;;4.21;81.74
7940;BME280;4015;48.888;9.226;2023-01-28T10:35:44;156305.06;;;4.20;81.64
7940;BME280;4015;48.888;9.226;2023-01-28T10:38:14;156275.78;;;4.08;81.22
7940;BME280;4015;48.888;9.226;2023-01-28T10:40:42;156266.94;;;4.04;81.02
7940;BME280;4015;48.888;9.226;2023-01-28T10:43:08;156298.72;;;4.17;80.60
7940;BME280;4015;48.888;9.226;2023-01-28T10:45:39;156297.44;;;4.17;80.75
7940;BME280;4015;48.888;9.226;2023-01-28T10:48:14;156336.84;;;4.32;80.29
7940;BME280;4015;48.888;9.226;2023-01-28T10:50:54;156394.13;;;4.55;80.09
7940;BME280;4015;48.888;9.226;2023-01-28T10:53:33;156441.19;;;4.74;78.23
7940;BME280;4015;48.888;9.226;2023-01-28T10:56:00;156523.91;;;5.07;78.52
7940;BME280;4015;48.888;9.226;2023-01-28T10:58:28;156579.91;;;5.30;77.52
7940;BME280;4015;48.888;9.226;2023-01-28T11:01:05;156574.78;;;5.28;76.39
7940;BME280;4015;48.888;9.226;2023-01-28T11:03:31;156586.25;;;5.32;76.44
7940;BME280;4015;48.888;9.226;2023-01-28T11:05:59;156551.91;;;5.19;76.58
7940;BME280;4015;48.888;9.226;2023-01-28T11:08:27;156413.19;;;4.63;76.85
7940;BME280;4015;48.888;9.226;2023-01-28T11:10:54;156487.00;;;4.93;77.48
7940;BME280;4015;48.888;9.226;2023-01-28T11:13:24;156474.28;;;4.87;77.53
7940;BME280;4015;48.888;9.226;2023-01-28T11:16:03;156377.56;;;4.49;78.88
7940;BME280;4015;48.888;9.226;2023-01-28T11:18:34;156375.03;;;4.48;78.96
7940;BME280;4015;48.888;9.226;2023-01-28T11:21:02;156319.06;;;4.25;78.95
7940;BME280;4015;48.888;9.226;2023-01-28T11:23:31;156302.53;;;4.19;79.25
7940;BME280;4015;48.888;9.226;2023-01-28T11:26:20;156299.97;;;4.18;80.08
7940;BME280;4015;48.888;9.226;2023-01-28T11:28:46;156260.53;;;4.02;80.94
7940;BME280;4015;48.888;9.226;2023-01-28T11:31:15;156306.31;;;4.20;81.30
7940;BME280;4015;48.888;9.226;2023-01-28T11:33:58;156282.19;;;4.11;80.78
7940;BME280;4015;48.888;9.226;2023-01-28T11:36:26;156317.78;;;4.25;80.48
7940;BME280;4015;48.888;9.226;2023-01-28T11:41:18;156317.78;;;4.25;80.91
7940;BME280;4015;48.888;9.226;2023-01-28T11:43:47;156249.13;;;3.97;80.46
7940;BME280;4015;48.888;9.226;2023-01-28T11:51:31;156272.00;;;4.06;78.33
7940;BME280;4015;48.888;9.226;2023-01-28T12:21:30;156223.69;;;3.87;80.49
7940;BME280;4015;48.888;9.226;2023-01-28T12:26:44;156286.00;;;4.12;81.46
7940;BME280;4015;48.888;9.226;2023-01-28T12:32:12;156214.81;;;3.84;83.50
7940;BME280;4015;48.888;9.226;2023-01-28T12:45:40;156265.66;;;4.04;84.64
7940;BME280;4015;48.888;9.226;2023-01-28T12:48:21;156233.88;;;3.91;85.78
7940;BME280;4015;48.888;9.226;2023-01-28T12:50:49;156209.69;;;3.82;86.21
7940;BME280;4015;48.888;9.226;2023-01-28T12:53:52;156146.13;;;3.56;87.10
7940;BME280;4015;48.888;9.226;2023-01-28T12:56:28;156207.16;;;3.81;86.72
7940;BME280;4015;48.888;9.226;2023-01-28T12:58:56;156189.34;;;3.73;86.76
7940;BME280;4015;48.888;9.226;2023-01-28T13:01:28;156207.16;;;3.81;86.36
7940;BME280;4015;48.888;9.226;2023-01-28T13:04:22;156189.34;;;3.73;86.88
7940;BME280;4015;48.888;9.226;2023-01-28T13:06:54;156097.81;;;3.37;87.59
7940;BME280;4015;48.888;9.226;2023-01-28T13:09:24;156029.19;;;3.09;88.89
7940;BME280;4015;48.888;9.226;2023-01-28T13:11:52;156086.38;;;3.32;88.77
7940;BME280;4015;48.888;9.226;2023-01-28T13:14:22;156081.28;;;3.30;88.82
7940;BME280;4015;48.888;9.226;2023-01-28T13:16:49;156115.59;;;3.44;88.00
7940;BME280;4015;48.888;9.226;2023-01-28T13:21:42;156156.31;;;3.60;87.69
7940;BME280;4015;48.888;9.226;2023-01-28T13:31:42;156230.06;;;3.90;86.49
7940;BME280;4015;48.888;9.226;2023-01-28T13:36:55;156204.63;;;3.79;86.34
7940;BME280;4015;48.888;9.226;2023-01-28T13:39:23;156280.91;;;4.10;85.14
7940;BME280;4015;48.888;9.226;2023-01-28T13:41:52;156223.69;;;3.87;84.99
7940;BME280;4015;48.888;9.226;2023-01-28T13:46:50;156226.22;;;3.88;84.00
7940;BME280;4015;48.888;9.226;2023-01-28T13:49:29;156249.13;;;3.97;84.13
7940;BME280;4015;48.888;9.226;2023-01-28T13:54:37;156214.81;;;3.84;82.78
7940;BME280;4015;48.888;9.226;2023-01-28T14:00:22;156208.41;;;3.81;83.38
7940;BME280;4015;48.888;9.226;2023-01-28T14:15:58;156198.22;;;3.77;81.40
7940;BME280;4015;48.888;9.226;2023-01-28T14:18:34;156210.94;;;3.82;81.50
7940;BME280;4015;48.888;9.226;2023-01-28T14:21:02;156155.03;;;3.60;81.76
7940;BME280;4015;48.888;9.226;2023-01-28T14:23:34;156146.13;;;3.56;81.93
7940;BME280;4015;48.888;9.226;2023-01-28T14:31:29;156123.25;;;3.47;81.56
7940;BME280;4015;48.888;9.226;2023-01-28T14:34:03;156092.75;;;3.35;82.71
7940;BME280;4015;48.888;9.226;2023-01-28T14:36:30;156134.66;;;3.51;81.95
7940;BME280;4015;48.888;9.226;2023-01-28T14:38:56;156181.69;;;3.70;81.94
7940;BME280;4015;48.888;9.226;2023-01-28T14:41:26;156207.16;;;3.81;81.65
7940;BME280;4015;48.888;9.226;2023-01-28T14:43:54;156171.56;;;3.66;81.12
7940;BME280;4015;48.888;9.226;2023-01-28T14:46:30;156212.22;;;3.83;80.17
7940;BME280;4015;48.888;9.226;2023-01-28T14:51:51;156189.34;;;3.73;80.54
7940;BME280;4015;48.888;9.226;2023-01-28T14:54:33;156188.09;;;3.73;81.02
7940;BME280;4015;48.888;9.226;2023-01-28T15:00:18;156219.88;;;3.86;81.10
7940;BME280;4015;48.888;9.226;2023-01-28T15:02:44;156265.66;;;4.04;79.43
7940;BME280;4015;48.888;9.226;2023-01-28T15:05:15;156207.16;;;3.81;79.76
7940;BME280;4015;48.888;9.226;2023-01-28T15:07:45;156208.41;;;3.81;79.83
7940;BME280;4015;48.888;9.226;2023-01-28T15:10:19;156235.13;;;3.92;80.22
7940;BME280;4015;48.888;9.226;2023-01-28T15:12:51;156246.59;;;3.96;79.19
7940;BME280;4015;48.888;9.226;2023-01-28T15:15:34;156242.75;;;3.95;79.30
7940;BME280;4015;48.888;9.226;2023-01-28T15:18:15;156230.06;;;3.90;79.14
7940;BME280;4015;48.888;9.226;2023-01-28T15:20:49;156176.63;;;3.68;79.46
7940;BME280;4015;48.888;9.226;2023-01-28T15:23:17;156119.41;;;3.45;80.52
7940;BME280;4015;48.888;9.226;2023-01-28T15:25:43;156120.72;;;3.46;80.01
7940;BME280;4015;48.888;9.226;2023-01-28T15:28:16;156143.59;;;3.55;79.91
7940;BME280;4015;48.888;9.226;2023-01-28T15:30:44;156102.88;;;3.39;80.45
7940;BME280;4015;48.888;9.226;2023-01-28T15:33:14;156082.56;;;3.31;80.05
7940;BME280;4015;48.888;9.226;2023-01-28T15:35:54;156077.50;;;3.29;79.93
7940;BME280;4015;48.888;9.226;2023-01-28T15:38:21;156111.81;;;3.42;80.29
7940;BME280;4015;48.888;9.226;2023-01-28T15:40:51;156120.72;;;3.46;80.25
7940;BME280;4015;48.888;9.226;2023-01-28T15:43:20;156148.66;;;3.57;79.18
7940;BME280;4015;48.888;9.226;2023-01-28T15:45:47;156082.56;;;3.31;79.70